Time;durP1;ratioP1;P1;durP2;ratioP2;P2;SDS_P1;SDS_P2;PMS_P1;PMS_P2;Temp;Humidity;BMP_temperature;BMP_pressure;BME280_temperature;BME280_humidity;BME280_pressure;Samples;Min_cycle;Max_cycle;Signal;HPM_P1;HPM_P2
2022/08/28 00:00:36;;;;;;;;;;;14.80;99.90;;;;;;5072779;28;19916;-74
2022/08/28 00:03:03;;;;;;;;;;;14.80;99.90;;;;;;5072587;28;20315;-74
2022/08/28 00:05:29;;;;;;;;;;;14.80;99.90;;;;;;5071041;28;19920;-74
2022/08/28 00:07:55;;;;;;;;;;;14.90;99.90;;;;;;5073076;28;20007;-74
2022/08/28 00:10:22;;;;;;;;;;;14.90;99.90;;;;;;5073131;28;19947;-74
2022/08/28 00:12:49;;;;;;;;;;;14.80;99.90;;;;;;5072845;28;19970;-74
2022/08/28 00:15:16;;;;;;;;;;;14.90;99.90;;;;;;5071257;28;19913;-74
2022/08/28 00:17:42;;;;;;;;;;;14.80;99.90;;;;;;5072397;28;20011;-74
2022/08/28 00:20:09;;;;;;;;;;;14.90;99.90;;;;;;5058803;28;20134;-74
2022/08/28 00:22:37;;;;;;;;;;;14.90;99.90;;;;;;5053119;28;19909;-74
2022/08/28 00:25:04;;;;;;;;;;;14.80;99.90;;;;;;5053726;28;19917;-74
2022/08/28 00:30:13;;;;;;;;;;;14.90;99.90;;;;;;5071643;28;19963;-73
2022/08/28 00:32:39;;;;;;;;;;;15.00;99.90;;;;;;5065374;28;19971;-74
2022/08/28 00:35:05;;;;;;;;;;;15.00;99.90;;;;;;5064463;28;19919;-73
2022/08/28 00:37:31;;;;;;;;;;;15.00;99.90;;;;;;5071401;28;20294;-74
2022/08/28 00:39:56;;;;;;;;;;;15.00;99.90;;;;;;5070848;28;19924;-75
2022/08/28 00:42:22;;;;;;;;;;;15.00;99.90;;;;;;5073217;28;19916;-74
2022/08/28 00:44:47;;;;;;;;;;;15.00;99.90;;;;;;5071266;28;20011;-74
2022/08/28 00:47:13;;;;;;;;;;;15.00;99.90;;;;;;5071145;28;20299;-75
2022/08/28 00:49:44;;;;;;;;;;;14.90;99.90;;;;;;5072569;28;19913;-74
2022/08/28 00:52:14;;;;;;;;;;;14.90;99.90;;;;;;5072240;28;19929;-74
2022/08/28 00:54:41;;;;;;;;;;;14.80;99.90;;;;;;5054525;28;20219;-75
2022/08/28 00:57:09;;;;;;;;;;;14.80;99.90;;;;;;5070905;28;19916;-74
2022/08/28 00:59:35;;;;;;;;;;;14.90;99.90;;;;;;5072076;28;19913;-74
2022/08/28 01:02:01;;;;;;;;;;;14.90;99.90;;;;;;5071337;28;19923;-75
2022/08/28 01:04:28;;;;;;;;;;;14.90;99.90;;;;;;5069329;28;19909;-74
2022/08/28 01:06:54;;;;;;;;;;;15.00;99.90;;;;;;5070847;28;20003;-74
2022/08/28 01:09:21;;;;;;;;;;;15.00;99.90;;;;;;5054559;28;19920;-75
2022/08/28 01:11:48;;;;;;;;;;;15.00;99.90;;;;;;5072366;28;19952;-75
2022/08/28 01:14:15;;;;;;;;;;;15.00;99.90;;;;;;5072537;28;19919;-78
2022/08/28 01:16:41;;;;;;;;;;;15.00;99.90;;;;;;5073070;28;19916;-75
2022/08/28 01:19:13;;;;;;;;;;;15.10;99.90;;;;;;5074717;28;19967;-75
2022/08/28 01:21:49;;;;;;;;;;;15.10;99.90;;;;;;5076152;28;19908;-75
2022/08/28 01:24:16;;;;;;;;;;;15.10;99.90;;;;;;5076851;28;19995;-76
2022/08/28 01:26:42;;;;;;;;;;;15.20;99.90;;;;;;5073778;28;19916;-74
2022/08/28 01:29:08;;;;;;;;;;;15.20;99.90;;;;;;5056335;28;20638;-75
2022/08/28 01:31:34;;;;;;;;;;;15.20;99.90;;;;;;5076168;28;20232;-76
2022/08/28 01:34:00;;;;;;;;;;;15.30;99.90;;;;;;5058817;28;19919;-78
2022/08/28 01:36:27;;;;;;;;;;;15.30;99.90;;;;;;5074513;28;20007;-75
2022/08/28 01:39:05;;;;;;;;;;;15.40;99.90;;;;;;5074102;28;19924;-75
2022/08/28 01:41:32;;;;;;;;;;;15.40;99.90;;;;;;5049048;28;20303;-77
2022/08/28 01:43:58;;;;;;;;;;;15.30;99.90;;;;;;5056846;28;19920;-75
2022/08/28 01:46:23;;;;;;;;;;;15.30;99.90;;;;;;5075150;28;19908;-77
2022/08/28 01:48:49;;;;;;;;;;;15.30;99.90;;;;;;5057263;28;19927;-75
2022/08/28 01:51:14;;;;;;;;;;;15.30;99.90;;;;;;5074609;28;19909;-80
2022/08/28 01:53:41;;;;;;;;;;;15.30;99.90;;;;;;5056920;28;19925;-76
2022/08/28 01:56:12;;;;;;;;;;;15.40;99.90;;;;;;5058003;28;19917;-77
2022/08/28 01:58:38;;;;;;;;;;;15.40;99.90;;;;;;5075407;28;19917;-76
2022/08/28 02:01:15;;;;;;;;;;;15.40;99.90;;;;;;5074039;28;20494;-75
2022/08/28 02:03:43;;;;;;;;;;;15.40;99.90;;;;;;5075325;28;20005;-78
2022/08/28 02:06:10;;;;;;;;;;;15.40;99.90;;;;;;5073027;28;19912;-75
2022/08/28 02:08:35;;;;;;;;;;;15.50;99.90;;;;;;5090494;28;19912;-76
2022/08/28 02:11:02;;;;;;;;;;;15.50;99.90;;;;;;5057403;28;19995;-75
2022/08/28 02:13:28;;;;;;;;;;;15.50;99.90;;;;;;5091603;28;19934;-75
2022/08/28 02:15:54;;;;;;;;;;;15.50;99.90;;;;;;5056379;28;20402;-74
2022/08/28 02:18:19;;;;;;;;;;;15.50;99.90;;;;;;5074217;28;19919;-74
2022/08/28 02:20:45;;;;;;;;;;;15.50;99.90;;;;;;5074584;28;19952;-74
2022/08/28 02:23:10;;;;;;;;;;;15.50;99.90;;;;;;5075167;28;19931;-75
2022/08/28 02:25:36;;;;;;;;;;;15.50;99.90;;;;;;5075382;28;19939;-74
2022/08/28 02:28:02;;;;;;;;;;;15.50;99.90;;;;;;5073415;28;19924;-73
2022/08/28 02:30:27;;;;;;;;;;;15.50;99.90;;;;;;5073304;28;19920;-74
2022/08/28 02:32:53;;;;;;;;;;;15.50;99.90;;;;;;5073603;28;19999;-74
2022/08/28 02:35:19;;;;;;;;;;;15.40;99.90;;;;;;5074593;28;19955;-74
2022/08/28 02:37:45;;;;;;;;;;;15.40;99.90;;;;;;5055785;28;20234;-74
2022/08/28 02:40:15;;;;;;;;;;;15.30;99.90;;;;;;5074360;28;19919;-74
2022/08/28 02:42:40;;;;;;;;;;;15.20;99.90;;;;;;5056841;28;19924;-74
2022/08/28 02:45:10;;;;;;;;;;;15.10;99.90;;;;;;5055453;28;20215;-74
2022/08/28 02:47:36;;;;;;;;;;;15.00;99.90;;;;;;5063479;28;19921;-74
2022/08/28 02:50:02;;;;;;;;;;;14.90;99.90;;;;;;5047092;28;20456;-75
2022/08/28 02:52:28;;;;;;;;;;;14.80;99.90;;;;;;5050122;28;19925;-76
2022/08/28 02:54:53;;;;;;;;;;;14.70;99.90;;;;;;5074450;28;19923;-74
2022/08/28 02:57:19;;;;;;;;;;;14.70;99.90;;;;;;5062891;28;19917;-75
2022/08/28 02:59:46;;;;;;;;;;;14.70;99.90;;;;;;5074076;28;19916;-74
2022/08/28 03:02:12;;;;;;;;;;;14.70;99.90;;;;;;5073482;28;19916;-74
2022/08/28 03:04:37;;;;;;;;;;;14.70;99.90;;;;;;5071224;28;19919;-74
2022/08/28 03:07:05;;;;;;;;;;;14.70;99.90;;;;;;5074166;28;19912;-76
2022/08/28 03:09:30;;;;;;;;;;;14.80;99.90;;;;;;5088039;28;19917;-74
2022/08/28 03:11:56;;;;;;;;;;;14.80;99.90;;;;;;5057446;28;19919;-74
2022/08/28 03:14:21;;;;;;;;;;;14.70;99.90;;;;;;5070094;28;20023;-74
2022/08/28 03:16:47;;;;;;;;;;;14.70;99.90;;;;;;5073676;28;19947;-74
2022/08/28 03:19:13;;;;;;;;;;;14.80;99.90;;;;;;5055581;28;20005;-74
2022/08/28 03:21:39;;;;;;;;;;;14.80;99.90;;;;;;5068377;28;19927;-74
2022/08/28 03:24:04;;;;;;;;;;;14.70;99.90;;;;;;5067346;28;19939;-74
2022/08/28 03:26:30;;;;;;;;;;;14.60;99.90;;;;;;5072472;28;20288;-75
2022/08/28 03:28:56;;;;;;;;;;;14.60;99.90;;;;;;5074210;28;19909;-74
2022/08/28 03:31:23;;;;;;;;;;;14.50;99.90;;;;;;5072041;28;19912;-77
2022/08/28 03:33:49;;;;;;;;;;;14.40;99.90;;;;;;5074237;28;19908;-79
2022/08/28 03:36:16;;;;;;;;;;;14.40;99.90;;;;;;5088368;28;20266;-74
2022/08/28 03:38:42;;;;;;;;;;;14.30;99.90;;;;;;5072775;28;20362;-75
2022/08/28 03:41:11;;;;;;;;;;;14.30;99.90;;;;;;5073683;28;19927;-74
2022/08/28 03:43:37;;;;;;;;;;;14.30;99.90;;;;;;5088299;28;20494;-74
2022/08/28 03:46:03;;;;;;;;;;;14.20;99.90;;;;;;5055067;28;20011;-74
2022/08/28 03:48:31;;;;;;;;;;;14.20;99.90;;;;;;5073781;28;19917;-78
2022/08/28 03:50:58;;;;;;;;;;;14.20;99.90;;;;;;5072330;28;20279;-74
2022/08/28 03:53:25;;;;;;;;;;;14.20;99.90;;;;;;5072312;28;19920;-75
2022/08/28 03:55:51;;;;;;;;;;;14.10;99.90;;;;;;5054418;28;19920;-77
2022/08/28 03:58:18;;;;;;;;;;;14.20;99.90;;;;;;5073269;28;20235;-75
2022/08/28 04:00:43;;;;;;;;;;;14.20;99.90;;;;;;5071371;28;20254;-74
2022/08/28 04:03:12;;;;;;;;;;;14.10;99.90;;;;;;5072996;28;19966;-74
2022/08/28 04:05:42;;;;;;;;;;;14.10;99.90;;;;;;5054891;28;19959;-74
2022/08/28 04:08:08;;;;;;;;;;;14.10;99.90;;;;;;5073134;28;20556;-74
2022/08/28 04:10:34;;;;;;;;;;;14.00;99.90;;;;;;5071815;28;19955;-75
2022/08/28 04:13:00;;;;;;;;;;;14.00;99.90;;;;;;5073360;28;19916;-74
2022/08/28 04:15:26;;;;;;;;;;;14.00;99.90;;;;;;5053268;28;19917;-74
2022/08/28 04:17:52;;;;;;;;;;;14.00;99.90;;;;;;5072019;28;19998;-74
2022/08/28 04:20:19;;;;;;;;;;;14.00;99.90;;;;;;5073176;28;20273;-74
2022/08/28 04:22:44;;;;;;;;;;;14.00;99.90;;;;;;5055221;28;19912;-74
2022/08/28 04:25:10;;;;;;;;;;;14.00;99.90;;;;;;5054427;28;20007;-74
2022/08/28 04:27:36;;;;;;;;;;;14.00;99.90;;;;;;5051238;28;20263;-74
2022/08/28 04:30:01;;;;;;;;;;;13.90;99.90;;;;;;5071372;28;19917;-74
2022/08/28 04:32:27;;;;;;;;;;;13.90;99.90;;;;;;5054407;28;20029;-74
2022/08/28 04:34:53;;;;;;;;;;;13.90;99.90;;;;;;5068974;28;19924;-75
2022/08/28 04:37:19;;;;;;;;;;;13.90;99.90;;;;;;5072865;28;19940;-74
2022/08/28 04:39:44;;;;;;;;;;;13.90;99.90;;;;;;5072830;28;19917;-74
2022/08/28 04:42:10;;;;;;;;;;;13.90;99.90;;;;;;5073513;28;19913;-74
2022/08/28 04:44:35;;;;;;;;;;;13.80;99.90;;;;;;5072916;28;19913;-74
2022/08/28 04:47:01;;;;;;;;;;;13.90;99.90;;;;;;5073058;28;20258;-75
2022/08/28 04:49:26;;;;;;;;;;;13.90;99.90;;;;;;5073682;28;20254;-74
2022/08/28 04:51:52;;;;;;;;;;;13.90;99.90;;;;;;5075484;28;19950;-74
2022/08/28 04:54:18;;;;;;;;;;;14.00;99.90;;;;;;5076490;28;19923;-74
2022/08/28 04:56:45;;;;;;;;;;;14.00;99.90;;;;;;5074267;28;20595;-74
2022/08/28 04:59:10;;;;;;;;;;;14.00;99.90;;;;;;5058267;28;19989;-74
2022/08/28 05:01:36;;;;;;;;;;;14.00;99.90;;;;;;5059392;28;19917;-75
2022/08/28 05:04:02;;;;;;;;;;;14.10;99.90;;;;;;5058012;28;19959;-74
2022/08/28 05:06:28;;;;;;;;;;;14.20;99.90;;;;;;5077087;28;20303;-75
2022/08/28 05:08:58;;;;;;;;;;;14.30;99.90;;;;;;5076773;28;19912;-74
2022/08/28 05:11:24;;;;;;;;;;;14.30;99.90;;;;;;5066900;28;20213;-75
2022/08/28 05:13:50;;;;;;;;;;;14.30;99.90;;;;;;5076166;28;20266;-75
2022/08/28 05:16:16;;;;;;;;;;;14.50;99.90;;;;;;5090581;28;19920;-75
2022/08/28 05:18:42;;;;;;;;;;;14.60;99.90;;;;;;5074017;28;20022;-74
2022/08/28 05:21:12;;;;;;;;;;;14.60;99.90;;;;;;5076262;28;19913;-74
2022/08/28 05:23:37;;;;;;;;;;;14.60;99.90;;;;;;5055470;28;19917;-74
2022/08/28 05:26:03;;;;;;;;;;;14.70;99.90;;;;;;5075577;28;20266;-74
2022/08/28 05:28:29;;;;;;;;;;;14.90;99.90;;;;;;5076522;28;19995;-74
2022/08/28 05:30:54;;;;;;;;;;;15.00;99.90;;;;;;5075270;28;20371;-74
2022/08/28 05:33:20;;;;;;;;;;;15.10;99.90;;;;;;5072657;28;20254;-75
2022/08/28 05:35:46;;;;;;;;;;;15.30;99.90;;;;;;5059073;28;19913;-77
2022/08/28 05:38:12;;;;;;;;;;;15.40;99.90;;;;;;5062385;28;20027;-75
2022/08/28 05:40:55;;;;;;;;;;;15.60;99.90;;;;;;5074877;28;19927;-74
2022/08/28 05:43:21;;;;;;;;;;;15.60;99.90;;;;;;5064345;28;19966;-75
2022/08/28 05:45:56;;;;;;;;;;;15.60;99.90;;;;;;5072529;28;19916;-75
2022/08/28 05:48:22;;;;;;;;;;;15.70;99.90;;;;;;5072745;28;19916;-75
2022/08/28 05:50:47;;;;;;;;;;;15.70;99.90;;;;;;5074379;28;20073;-74
2022/08/28 05:53:13;;;;;;;;;;;15.80;99.90;;;;;;5074662;28;19971;-75
2022/08/28 05:55:39;;;;;;;;;;;15.90;99.90;;;;;;5057606;28;19920;-74
2022/08/28 05:58:27;;;;;;;;;;;16.00;99.90;;;;;;5075122;28;19912;-74
2022/08/28 06:00:50;;;;;;;;;;;16.00;99.90;;;;;;5073489;28;19916;-76
2022/08/28 06:03:16;;;;;;;;;;;16.10;99.90;;;;;;5062976;28;20315;-74
2022/08/28 06:05:42;;;;;;;;;;;16.20;99.90;;;;;;5071415;28;19916;-74
2022/08/28 06:08:07;;;;;;;;;;;16.30;99.90;;;;;;5073379;28;20322;-75
2022/08/28 06:10:35;;;;;;;;;;;16.40;99.90;;;;;;5074649;28;19962;-74
2022/08/28 06:13:01;;;;;;;;;;;16.50;99.90;;;;;;5073082;28;19948;-75
2022/08/28 06:15:27;;;;;;;;;;;16.50;99.90;;;;;;5072773;28;20013;-76
2022/08/28 06:17:53;;;;;;;;;;;16.60;99.90;;;;;;5062285;28;19920;-76
2022/08/28 06:20:18;;;;;;;;;;;16.60;99.90;;;;;;5073730;28;20250;-75
2022/08/28 06:22:44;;;;;;;;;;;16.60;99.90;;;;;;5072896;28;19952;-77
2022/08/28 06:25:13;;;;;;;;;;;16.80;99.90;;;;;;5070906;28;19963;-78
2022/08/28 06:27:38;;;;;;;;;;;16.90;99.90;;;;;;5060433;28;19917;-75
2022/08/28 06:30:04;;;;;;;;;;;17.10;99.90;;;;;;5063248;28;19916;-75
2022/08/28 06:32:30;;;;;;;;;;;17.30;99.90;;;;;;5072845;28;19913;-80
2022/08/28 06:34:55;;;;;;;;;;;17.40;99.90;;;;;;5073985;28;19920;-76
2022/08/28 06:37:21;;;;;;;;;;;17.40;99.90;;;;;;5071579;28;19925;-73
2022/08/28 06:39:46;;;;;;;;;;;17.50;99.90;;;;;;5074826;28;19919;-77
2022/08/28 06:42:12;;;;;;;;;;;17.60;99.90;;;;;;5073406;28;20653;-79
2022/08/28 06:44:38;;;;;;;;;;;17.70;99.90;;;;;;5074720;28;19952;-75
2022/08/28 06:47:03;;;;;;;;;;;17.80;99.90;;;;;;5074557;28;20273;-75
2022/08/28 06:49:29;;;;;;;;;;;17.80;99.90;;;;;;5074803;28;20312;-77
2022/08/28 06:51:55;;;;;;;;;;;17.80;99.90;;;;;;5057175;28;19923;-76
2022/08/28 06:54:21;;;;;;;;;;;17.90;99.90;;;;;;5069684;28;19921;-76
2022/08/28 06:56:47;;;;;;;;;;;18.00;99.90;;;;;;5065269;28;19920;-74
2022/08/28 06:59:13;;;;;;;;;;;18.10;99.90;;;;;;5064455;28;19950;-77
2022/08/28 07:01:38;;;;;;;;;;;18.20;99.90;;;;;;5070170;28;19913;-76
2022/08/28 07:04:05;;;;;;;;;;;18.30;99.90;;;;;;5073563;28;20049;-76
2022/08/28 07:06:34;;;;;;;;;;;18.40;99.90;;;;;;5088656;28;19916;-76
2022/08/28 07:08:59;;;;;;;;;;;18.40;99.90;;;;;;5066526;28;20231;-80
2022/08/28 07:11:29;;;;;;;;;;;18.40;99.90;;;;;;5073690;28;19909;-78
2022/08/28 07:13:55;;;;;;;;;;;18.40;99.90;;;;;;5052134;28;19908;-77
2022/08/28 07:16:21;;;;;;;;;;;18.60;99.90;;;;;;5072485;28;19927;-77
2022/08/28 07:18:47;;;;;;;;;;;18.80;99.90;;;;;;5070480;28;19924;-80
2022/08/28 07:21:12;;;;;;;;;;;18.80;99.90;;;;;;5073555;28;19925;-76
2022/08/28 07:23:38;;;;;;;;;;;18.90;99.90;;;;;;5064206;28;19912;-78
2022/08/28 07:26:06;;;;;;;;;;;19.00;99.90;;;;;;5079364;28;19913;-77
2022/08/28 07:28:32;;;;;;;;;;;19.20;99.90;;;;;;5069727;28;20001;-76
2022/08/28 07:30:59;;;;;;;;;;;19.20;99.90;;;;;;5044753;28;20307;-75
2022/08/28 07:33:26;;;;;;;;;;;19.20;99.90;;;;;;5072190;28;19913;-76
2022/08/28 07:35:52;;;;;;;;;;;19.20;99.90;;;;;;5067973;28;19920;-77
2022/08/28 07:38:18;;;;;;;;;;;19.20;99.90;;;;;;5060375;28;20200;-76
2022/08/28 07:40:43;;;;;;;;;;;19.10;99.90;;;;;;5062616;28;19908;-80
2022/08/28 07:46:00;;;;;;;;;;;19.30;99.90;;;;;;5079594;28;19935;-76
2022/08/28 07:48:26;;;;;;;;;;;19.60;99.90;;;;;;5067939;28;20022;-77
2022/08/28 07:50:52;;;;;;;;;;;19.90;99.90;;;;;;5065365;28;20248;-77
2022/08/28 07:53:17;;;;;;;;;;;19.80;99.90;;;;;;5070185;28;19925;-75
2022/08/28 07:55:43;;;;;;;;;;;19.70;99.90;;;;;;5068496;28;19915;-81
2022/08/28 07:58:09;;;;;;;;;;;19.70;99.90;;;;;;5051445;28;19955;-78
2022/08/28 08:00:34;;;;;;;;;;;19.80;99.90;;;;;;5073325;28;20192;-77
2022/08/28 08:03:00;;;;;;;;;;;19.80;99.90;;;;;;5070784;28;19956;-76
2022/08/28 08:05:25;;;;;;;;;;;20.00;99.90;;;;;;5074310;28;19931;-77
2022/08/28 08:07:51;;;;;;;;;;;20.00;99.90;;;;;;5073266;28;19909;-78
2022/08/28 08:10:17;;;;;;;;;;;20.00;99.90;;;;;;5071283;28;19917;-76
2022/08/28 08:12:43;;;;;;;;;;;20.00;99.90;;;;;;5088094;28;19916;-75
2022/08/28 08:15:09;;;;;;;;;;;20.00;99.90;;;;;;5072097;28;19916;-79
2022/08/28 08:17:35;;;;;;;;;;;19.80;99.90;;;;;;5067721;28;19919;-80
2022/08/28 08:20:02;;;;;;;;;;;19.60;99.90;;;;;;5071273;28;20381;-79
2022/08/28 08:22:28;;;;;;;;;;;19.70;99.90;;;;;;5054685;28;20270;-80
2022/08/28 08:24:54;;;;;;;;;;;19.70;99.90;;;;;;5050678;28;19912;-76
2022/08/28 08:27:20;;;;;;;;;;;19.60;99.90;;;;;;5057307;28;19912;-77
2022/08/28 08:29:45;;;;;;;;;;;19.50;99.90;;;;;;5055580;28;19920;-78
2022/08/28 08:32:11;;;;;;;;;;;19.60;99.90;;;;;;5052369;28;20315;-78
2022/08/28 08:34:38;;;;;;;;;;;19.80;99.90;;;;;;5054309;28;19916;-78
2022/08/28 08:37:04;;;;;;;;;;;20.10;99.90;;;;;;5074145;28;19974;-77
2022/08/28 08:39:30;;;;;;;;;;;20.30;99.90;;;;;;5058784;28;19913;-79
2022/08/28 08:41:57;;;;;;;;;;;20.50;99.90;;;;;;5074787;28;20325;-80
2022/08/28 08:44:32;;;;;;;;;;;20.80;99.90;;;;;;5076654;28;19920;-77
2022/08/28 08:47:02;;;;;;;;;;;20.90;99.90;;;;;;5074568;28;19920;-79
2022/08/28 08:49:51;;;;;;;;;;;21.00;99.90;;;;;;5061500;28;20291;-77
2022/08/28 08:52:17;;;;;;;;;;;21.10;99.90;;;;;;5074569;28;20531;-77
2022/08/28 08:54:45;;;;;;;;;;;21.00;99.90;;;;;;5063958;28;19920;-76
2022/08/28 08:57:12;;;;;;;;;;;21.00;99.90;;;;;;5062451;28;19920;-78
2022/08/28 08:59:38;;;;;;;;;;;20.90;99.90;;;;;;5072018;28;19917;-81
2022/08/28 09:02:21;;;;;;;;;;;20.90;99.90;;;;;;5073327;28;19923;-75
2022/08/28 09:04:52;;;;;;;;;;;20.90;99.90;;;;;;5074091;28;19955;-77
2022/08/28 09:07:19;;;;;;;;;;;20.70;99.90;;;;;;5059926;28;19923;-80
2022/08/28 09:09:54;;;;;;;;;;;20.70;99.90;;;;;;5073493;28;19921;-78
2022/08/28 09:12:24;;;;;;;;;;;20.70;99.90;;;;;;5056619;28;20326;-77
2022/08/28 09:15:04;;;;;;;;;;;20.80;99.90;;;;;;5095691;28;20038;-79
2022/08/28 09:17:33;;;;;;;;;;;20.90;99.90;;;;;;5064389;28;20352;-77
2022/08/28 09:19:59;;;;;;;;;;;20.60;99.90;;;;;;5072639;28;20299;-78
2022/08/28 09:22:24;;;;;;;;;;;20.40;99.90;;;;;;5092472;28;19924;-77
2022/08/28 09:24:50;;;;;;;;;;;20.10;99.90;;;;;;5062515;28;20220;-76
2022/08/28 09:27:24;;;;;;;;;;;20.00;99.90;;;;;;5074717;28;19912;-76
2022/08/28 09:29:55;;;;;;;;;;;20.10;99.90;;;;;;5072897;28;20049;-81
2022/08/28 09:32:26;;;;;;;;;;;19.90;99.90;;;;;;5074396;28;19917;-76
2022/08/28 09:35:07;;;;;;;;;;;19.80;99.90;;;;;;5060434;28;20459;-78
2022/08/28 09:37:33;;;;;;;;;;;19.50;99.90;;;;;;5061516;28;19920;-76
2022/08/28 09:40:19;;;;;;;;;;;19.60;99.90;;;;;;5074329;28;19912;-77
2022/08/28 09:45:51;;;;;;;;;;;20.40;99.90;;;;;;5073518;28;19955;-74
2022/08/28 09:48:32;;;;;;;;;;;20.70;99.90;;;;;;5072025;28;19916;-76
2022/08/28 09:51:02;;;;;;;;;;;20.80;99.90;;;;;;5062784;28;19916;-80
2022/08/28 09:53:29;;;;;;;;;;;21.00;99.90;;;;;;5074653;28;19925;-80
2022/08/28 09:56:01;;;;;;;;;;;21.00;99.90;;;;;;5059646;28;20018;-77
2022/08/28 09:58:31;;;;;;;;;;;20.70;99.90;;;;;;5072547;28;19946;-76
2022/08/28 10:01:04;;;;;;;;;;;20.70;99.90;;;;;;5071191;28;20467;-79
2022/08/28 10:03:36;;;;;;;;;;;20.90;99.90;;;;;;5074401;28;19920;-76
2022/08/28 10:06:07;;;;;;;;;;;20.80;99.90;;;;;;5060428;28;19913;-79
2022/08/28 10:08:32;;;;;;;;;;;20.90;99.90;;;;;;5060765;28;19921;-79
2022/08/28 10:11:01;;;;;;;;;;;21.30;99.90;;;;;;5062510;28;19939;-77
2022/08/28 10:13:34;;;;;;;;;;;21.40;99.90;;;;;;5072993;28;19917;-79
2022/08/28 10:16:18;;;;;;;;;;;21.40;99.90;;;;;;5074736;28;19962;-79
2022/08/28 10:18:43;;;;;;;;;;;21.20;99.90;;;;;;5074267;28;19915;-77
2022/08/28 10:21:32;;;;;;;;;;;21.10;99.90;;;;;;5074858;28;19908;-78
2022/08/28 10:24:10;;;;;;;;;;;21.20;99.90;;;;;;5043915;28;19912;-76
2022/08/28 10:26:46;;;;;;;;;;;21.10;99.90;;;;;;5072562;28;19935;-80
2022/08/28 10:29:21;;;;;;;;;;;21.30;99.90;;;;;;5071169;28;19917;-76
2022/08/28 10:31:56;;;;;;;;;;;21.50;99.90;;;;;;5068541;28;19916;-76
2022/08/28 10:34:24;;;;;;;;;;;21.60;99.90;;;;;;5090410;28;20361;-79
2022/08/28 10:37:13;;;;;;;;;;;21.50;99.90;;;;;;5071981;28;19917;-77
2022/08/28 10:39:46;;;;;;;;;;;21.60;99.90;;;;;;5073126;28;21694;-76
2022/08/28 10:42:13;;;;;;;;;;;21.80;99.90;;;;;;5050679;28;19924;-73
2022/08/28 10:44:42;;;;;;;;;;;21.90;99.90;;;;;;5053672;28;19962;-75
2022/08/28 10:47:09;;;;;;;;;;;21.70;99.90;;;;;;5070335;28;19966;-77
2022/08/28 10:49:43;;;;;;;;;;;21.40;99.90;;;;;;5072493;28;20296;-74
2022/08/28 10:52:11;;;;;;;;;;;21.20;99.90;;;;;;5074525;28;19967;-77
2022/08/28 10:54:45;;;;;;;;;;;21.00;99.90;;;;;;5074731;28;20031;-76
2022/08/28 10:57:23;;;;;;;;;;;20.70;99.90;;;;;;5070092;28;19916;-77
2022/08/28 10:59:51;;;;;;;;;;;21.00;99.90;;;;;;5062703;28;19920;-75
2022/08/28 11:02:18;;;;;;;;;;;21.20;99.90;;;;;;5056568;28;20211;-77
2022/08/28 11:04:45;;;;;;;;;;;21.10;99.90;;;;;;5073364;28;20350;-78
2022/08/28 11:07:14;;;;;;;;;;;21.30;99.90;;;;;;5055841;28;19916;-75
2022/08/28 11:09:42;;;;;;;;;;;21.40;99.90;;;;;;5052225;28;19912;-76
2022/08/28 11:12:18;;;;;;;;;;;21.10;99.90;;;;;;5072789;28;19970;-78
2022/08/28 11:14:49;;;;;;;;;;;21.00;99.90;;;;;;5052544;28;19920;-80
2022/08/28 11:17:21;;;;;;;;;;;21.30;99.90;;;;;;5051796;28;19916;-80
2022/08/28 11:19:49;;;;;;;;;;;21.40;99.90;;;;;;5071948;28;19944;-78
2022/08/28 11:22:18;;;;;;;;;;;21.60;99.90;;;;;;5073488;28;19908;-77
2022/08/28 11:24:45;;;;;;;;;;;21.80;99.90;;;;;;5071883;28;19916;-79
2022/08/28 11:27:29;;;;;;;;;;;22.10;99.90;;;;;;5061825;28;20433;-78
2022/08/28 11:29:55;;;;;;;;;;;22.00;99.90;;;;;;5051740;28;20223;-74
2022/08/28 11:32:27;;;;;;;;;;;22.00;99.90;;;;;;5069121;28;20011;-75
2022/08/28 11:34:59;;;;;;;;;;;22.00;99.90;;;;;;5071733;28;19916;-76
2022/08/28 11:37:41;;;;;;;;;;;21.70;99.90;;;;;;5073209;28;20262;-76
2022/08/28 11:40:32;;;;;;;;;;;21.70;99.50;;;;;;5065051;28;19913;-77
2022/08/28 11:43:13;;;;;;;;;;;21.70;99.90;;;;;;5048271;28;19916;-75
2022/08/28 11:45:41;;;;;;;;;;;21.80;99.90;;;;;;5072889;28;19917;-75
2022/08/28 11:48:07;;;;;;;;;;;21.90;99.40;;;;;;5071573;28;19981;-76
2022/08/28 11:50:51;;;;;;;;;;;21.90;99.90;;;;;;5052208;28;19975;-72
2022/08/28 11:53:35;;;;;;;;;;;21.80;99.30;;;;;;5053103;28;19928;-78
2022/08/28 11:56:01;;;;;;;;;;;21.70;99.60;;;;;;5065342;28;19916;-75
2022/08/28 11:58:36;;;;;;;;;;;21.60;99.10;;;;;;5068252;28;20227;-75
2022/08/28 12:01:09;;;;;;;;;;;21.60;99.80;;;;;;5070960;28;20595;-76
2022/08/28 12:03:35;;;;;;;;;;;21.70;99.50;;;;;;5054910;28;20248;-75
2022/08/28 12:06:01;;;;;;;;;;;21.60;99.00;;;;;;5054996;28;19995;-75
2022/08/28 12:08:46;;;;;;;;;;;21.60;99.50;;;;;;5072638;28;19917;-77
2022/08/28 12:11:32;;;;;;;;;;;21.70;99.90;;;;;;5072063;28;19913;-74
2022/08/28 12:13:57;;;;;;;;;;;21.80;99.60;;;;;;5069044;28;19923;-74
2022/08/28 12:16:23;;;;;;;;;;;21.80;99.70;;;;;;5069877;28;19928;-74
2022/08/28 12:18:48;;;;;;;;;;;21.90;99.90;;;;;;5071375;28;19921;-76
2022/08/28 12:21:21;;;;;;;;;;;22.20;99.90;;;;;;5072921;28;19965;-77
2022/08/28 12:24:05;;;;;;;;;;;22.40;99.10;;;;;;5071906;28;19916;-75
2022/08/28 12:26:34;;;;;;;;;;;22.30;97.40;;;;;;5071231;28;19943;-76
2022/08/28 12:29:02;;;;;;;;;;;22.20;98.10;;;;;;5072306;28;19913;-76
2022/08/28 12:34:40;;;;;;;;;;;22.00;98.10;;;;;;5069467;28;20379;-74
2022/08/28 12:37:20;;;;;;;;;;;21.80;98.20;;;;;;5070939;28;20223;-78
2022/08/28 12:39:45;;;;;;;;;;;21.80;98.20;;;;;;5070350;28;20223;-77
2022/08/28 12:42:16;;;;;;;;;;;21.90;98.20;;;;;;5069451;28;19917;-76
2022/08/28 12:44:41;;;;;;;;;;;21.90;98.30;;;;;;5087753;28;19952;-75
2022/08/28 12:47:07;;;;;;;;;;;22.20;99.90;;;;;;5060233;28;19962;-73
2022/08/28 12:49:34;;;;;;;;;;;22.30;97.00;;;;;;5072022;28;19912;-79
2022/08/28 12:52:07;;;;;;;;;;;22.30;97.70;;;;;;5067809;28;19982;-75
2022/08/28 12:54:34;;;;;;;;;;;22.30;97.60;;;;;;5061086;28;19916;-76
2022/08/28 12:57:03;;;;;;;;;;;22.20;97.30;;;;;;5065104;28;19967;-75
2022/08/28 12:59:43;;;;;;;;;;;22.00;96.20;;;;;;5068031;28;19963;-76
2022/08/28 13:02:35;;;;;;;;;;;21.90;95.60;;;;;;5064656;28;19920;-73
2022/08/28 13:05:06;;;;;;;;;;;22.00;96.70;;;;;;5067182;28;19912;-76
2022/08/28 13:07:40;;;;;;;;;;;22.00;96.90;;;;;;5070239;28;20311;-75
2022/08/28 13:10:28;;;;;;;;;;;22.10;96.50;;;;;;5058584;28;20323;-76
2022/08/28 13:13:02;;;;;;;;;;;22.00;97.00;;;;;;5072614;28;19920;-75
2022/08/28 13:15:48;;;;;;;;;;;21.90;97.90;;;;;;5069038;28;19967;-77
2022/08/28 13:18:33;;;;;;;;;;;21.90;97.60;;;;;;5051574;28;19920;-77
2022/08/28 13:21:17;;;;;;;;;;;21.90;97.30;;;;;;5056192;28;20223;-75
2022/08/28 13:23:51;;;;;;;;;;;22.00;97.70;;;;;;5066612;28;19921;-75
2022/08/28 13:26:19;;;;;;;;;;;22.10;97.90;;;;;;5056419;28;19912;-78
2022/08/28 13:28:45;;;;;;;;;;;22.10;97.00;;;;;;5075448;28;19966;-78
2022/08/28 13:31:24;;;;;;;;;;;22.10;97.70;;;;;;5071494;28;19926;-77
2022/08/28 13:34:02;;;;;;;;;;;22.30;97.80;;;;;;5068315;28;19938;-77
2022/08/28 13:36:36;;;;;;;;;;;22.10;96.50;;;;;;5064032;28;20003;-76
2022/08/28 13:39:02;;;;;;;;;;;22.00;96.40;;;;;;5067377;28;19916;-79
2022/08/28 13:41:28;;;;;;;;;;;21.70;96.30;;;;;;5071252;28;20203;-76
2022/08/28 13:43:54;;;;;;;;;;;21.70;97.20;;;;;;5067662;28;20215;-75
2022/08/28 13:46:19;;;;;;;;;;;21.80;97.00;;;;;;5052568;28;20003;-73
2022/08/28 13:48:45;;;;;;;;;;;21.80;96.60;;;;;;5067837;28;20354;-78
2022/08/28 13:51:12;;;;;;;;;;;21.70;95.70;;;;;;5069786;28;19947;-79
2022/08/28 13:53:38;;;;;;;;;;;21.70;96.40;;;;;;5058212;28;19931;-75
2022/08/28 13:56:04;;;;;;;;;;;21.80;95.60;;;;;;5071973;28;20215;-75
2022/08/28 13:58:29;;;;;;;;;;;21.70;95.30;;;;;;5060180;28;19935;-78
2022/08/28 14:00:55;;;;;;;;;;;21.70;97.40;;;;;;5060461;28;19912;-78
2022/08/28 14:03:37;;;;;;;;;;;21.70;95.90;;;;;;5072357;28;19930;-76
2022/08/28 14:06:03;;;;;;;;;;;21.60;96.10;;;;;;5057922;28;19917;-75
2022/08/28 14:08:29;;;;;;;;;;;21.70;95.80;;;;;;5072102;28;19928;-77
2022/08/28 14:10:54;;;;;;;;;;;21.70;95.80;;;;;;5070236;28;19920;-76
2022/08/28 14:13:22;;;;;;;;;;;21.70;95.10;;;;;;5069628;28;20489;-76
2022/08/28 14:15:48;;;;;;;;;;;21.60;96.30;;;;;;5055767;28;20322;-77
2022/08/28 14:18:14;;;;;;;;;;;21.50;95.70;;;;;;5068819;28;19913;-77
2022/08/28 14:20:39;;;;;;;;;;;21.50;96.10;;;;;;5068446;28;19916;-75
2022/08/28 14:23:07;;;;;;;;;;;21.50;96.00;;;;;;5053895;28;19959;-75
2022/08/28 14:25:33;;;;;;;;;;;21.50;95.30;;;;;;5064595;28;19966;-77
2022/08/28 14:27:58;;;;;;;;;;;21.40;95.80;;;;;;5066685;28;19916;-75
2022/08/28 14:30:24;;;;;;;;;;;21.40;96.80;;;;;;5065066;28;19925;-73
2022/08/28 14:32:50;;;;;;;;;;;21.50;97.10;;;;;;5068035;28;19920;-76
2022/08/28 14:35:16;;;;;;;;;;;21.70;97.70;;;;;;5071643;28;19912;-76